Time;durP1;ratioP1;P1;durP2;ratioP2;P2;SDS_P1;SDS_P2;PMS_P1;PMS_P2;Temp;Humidity;BMP_temperature;BMP_pressure;BME280_temperature;BME280_humidity;BME280_pressure;Samples;Min_cycle;Max_cycle;Signal;HPM_P1;HPM_P2
2021/07/05 00:01:41;;;;;;;9.48;5.70;;;20.10;63.50;;;;;;4993679;28;20040;-83
2021/07/05 00:04:06;;;;;;;7.35;4.63;;;20.00;63.50;;;;;;4993792;28;20022;-84
2021/07/05 00:06:32;;;;;;;9.32;6.05;;;20.00;63.80;;;;;;4993476;28;20476;-83
2021/07/05 00:08:58;;;;;;;8.75;4.78;;;19.90;64.10;;;;;;4987749;28;20018;-82
2021/07/05 00:11:24;;;;;;;8.02;5.55;;;19.80;64.60;;;;;;4993422;28;20102;-82
2021/07/05 00:13:50;;;;;;;7.40;5.32;;;19.70;64.90;;;;;;4993269;28;20073;-81
2021/07/05 00:16:16;;;;;;;7.55;5.03;;;19.70;65.00;;;;;;4993546;28;20026;-83
2021/07/05 00:18:42;;;;;;;10.43;5.15;;;19.60;65.10;;;;;;4993481;28;20019;-84
2021/07/05 00:21:08;;;;;;;8.00;5.25;;;19.60;65.10;;;;;;4993165;28;20061;-83
2021/07/05 00:23:34;;;;;;;6.45;5.18;;;19.60;65.40;;;;;;4993373;28;20551;-82
2021/07/05 00:26:00;;;;;;;8.57;4.88;;;19.60;65.80;;;;;;4993665;28;20061;-82
2021/07/05 00:28:26;;;;;;;9.07;5.32;;;19.60;66.10;;;;;;4993616;28;20026;-82
2021/07/05 00:30:52;;;;;;;9.75;5.32;;;19.50;66.40;;;;;;4993409;28;20106;-82
2021/07/05 00:33:18;;;;;;;9.77;4.88;;;19.40;66.60;;;;;;4993663;28;20467;-83
2021/07/05 00:35:43;;;;;;;9.65;4.75;;;19.40;67.00;;;;;;4993386;28;20027;-84
2021/07/05 00:38:10;;;;;;;6.05;4.90;;;19.30;67.20;;;;;;4992185;28;20057;-81
2021/07/05 00:40:36;;;;;;;10.95;5.32;;;19.20;67.60;;;;;;4992233;28;20030;-85
2021/07/05 00:43:02;;;;;;;8.00;5.45;;;19.20;68.00;;;;;;4991843;28;20117;-82
2021/07/05 00:45:29;;;;;;;7.63;4.57;;;19.10;68.40;;;;;;4993509;28;20034;-82
2021/07/05 00:47:55;;;;;;;8.15;4.80;;;19.00;68.70;;;;;;4993887;28;20105;-83
2021/07/05 00:50:24;;;;;;;7.30;4.63;;;18.90;68.90;;;;;;4994101;28;20054;-81
2021/07/05 00:52:55;;;;;;;8.02;5.22;;;18.80;69.20;;;;;;5006373;28;20018;-82
2021/07/05 00:55:23;;;;;;;9.50;5.45;;;18.80;69.40;;;;;;4996373;28;20051;-81
2021/07/05 00:57:49;;;;;;;7.53;4.90;;;18.80;69.50;;;;;;4987501;28;20422;-81
2021/07/05 01:00:18;;;;;;;8.00;5.10;;;18.80;69.30;;;;;;4977065;28;20535;-80
2021/07/05 01:02:45;;;;;;;6.50;5.13;;;18.80;69.30;;;;;;4991853;28;20467;-80
2021/07/05 01:05:12;;;;;;;9.93;5.65;;;18.80;69.40;;;;;;4992696;28;20026;-82
2021/07/05 01:07:39;;;;;;;9.10;5.18;;;18.70;69.30;;;;;;4995358;28;20488;-80
2021/07/05 01:10:06;;;;;;;11.27;6.13;;;18.70;69.60;;;;;;4996744;28;20065;-80
2021/07/05 01:12:33;;;;;;;7.97;5.10;;;18.60;69.70;;;;;;4992318;28;20046;-81
2021/07/05 01:14:59;;;;;;;8.13;5.90;;;18.60;69.60;;;;;;4990713;28;20089;-82
2021/07/05 01:17:25;;;;;;;8.27;4.95;;;18.60;69.50;;;;;;4994918;28;20475;-80
2021/07/05 01:19:52;;;;;;;5.97;5.35;;;18.60;69.90;;;;;;4996673;28;20030;-80
2021/07/05 01:22:19;;;;;;;6.43;5.13;;;18.50;70.00;;;;;;4996259;28;20376;-81
2021/07/05 01:24:47;;;;;;;9.93;5.32;;;18.50;69.80;;;;;;4996596;28;20299;-81
2021/07/05 01:27:13;;;;;;;6.80;5.22;;;18.50;69.90;;;;;;4996140;28;20030;-81
2021/07/05 01:29:40;;;;;;;6.90;4.65;;;18.50;69.90;;;;;;4996500;28;20018;-80
2021/07/05 01:32:06;;;;;;;11.10;5.45;;;18.50;69.60;;;;;;4996263;28;20022;-80
2021/07/05 01:34:32;;;;;;;7.63;5.03;;;18.50;69.50;;;;;;4996449;28;20080;-81
2021/07/05 01:36:58;;;;;;;8.95;5.97;;;18.50;69.40;;;;;;4996630;28;20030;-81
2021/07/05 01:39:25;;;;;;;9.65;6.30;;;18.50;68.90;;;;;;4994980;28;20046;-81
2021/07/05 01:41:51;;;;;;;12.18;8.10;;;18.50;68.90;;;;;;4996456;28;20063;-81
2021/07/05 01:44:16;;;;;;;11.43;7.05;;;18.60;68.40;;;;;;4996386;28;20030;-80
2021/07/05 01:46:43;;;;;;;16.08;7.28;;;18.60;68.00;;;;;;4997175;28;20022;-80
2021/07/05 01:49:09;;;;;;;11.02;7.78;;;18.60;68.10;;;;;;4995262;28;20096;-81
2021/07/05 01:51:35;;;;;;;12.20;8.50;;;18.60;67.80;;;;;;4996293;28;20105;-82
2021/07/05 01:54:02;;;;;;;11.75;8.95;;;18.70;67.90;;;;;;4996162;28;20335;-80
2021/07/05 01:56:28;;;;;;;17.15;8.60;;;18.70;67.80;;;;;;4996580;28;20030;-80
2021/07/05 01:58:54;;;;;;;13.30;7.50;;;18.70;68.00;;;;;;4996627;28;20451;-81
2021/07/05 02:01:20;;;;;;;14.60;8.18;;;18.70;67.50;;;;;;4994106;28;20085;-81
2021/07/05 02:03:46;;;;;;;11.32;7.47;;;18.70;67.00;;;;;;4983970;28;20085;-79
2021/07/05 02:06:12;;;;;;;8.00;6.53;;;18.80;66.90;;;;;;4995979;28;20027;-80
2021/07/05 02:08:38;;;;;;;11.05;7.18;;;18.80;66.60;;;;;;4996045;28;20026;-81
2021/07/05 02:11:04;;;;;;;11.68;6.38;;;18.80;67.30;;;;;;4996663;28;20023;-79
2021/07/05 02:13:33;;;;;;;13.25;5.80;;;18.80;66.40;;;;;;4997156;28;20039;-80
2021/07/05 02:16:00;;;;;;;9.38;4.90;;;18.90;66.60;;;;;;4996036;28;20388;-80
2021/07/05 02:18:28;;;;;;;9.18;4.95;;;18.90;66.40;;;;;;4994668;28;20447;-79
2021/07/05 02:20:55;;;;;;;;;;;18.90;65.90;;;;;;4995847;28;20038;-82
2021/07/05 02:23:21;;;;;;;7.53;4.93;;;18.90;65.90;;;;;;4982009;28;19906;-82
2021/07/05 02:25:48;;;;;;;6.50;5.45;;;18.90;65.60;;;;;;4995768;28;20054;-81
2021/07/05 02:28:16;;;;;;;8.05;4.38;;;18.90;65.80;;;;;;4995249;28;20161;-80
2021/07/05 02:30:48;;;;;;;6.95;4.63;;;19.00;65.30;;;;;;4995268;28;20037;-83
2021/07/05 02:33:15;;;;;;;5.22;4.53;;;19.00;65.10;;;;;;4995467;28;20113;-82
2021/07/05 02:35:41;;;;;;;9.77;4.78;;;19.10;64.90;;;;;;4995218;28;20034;-80
2021/07/05 02:38:09;;;;;;;13.18;4.93;;;19.10;64.80;;;;;;4995306;28;20026;-80
2021/07/05 02:40:40;;;;;;;8.38;4.30;;;19.10;64.50;;;;;;4994926;28;20026;-82
2021/07/05 02:43:06;;;;;;;8.73;4.10;;;19.20;63.90;;;;;;4995014;28;20029;-79
2021/07/05 02:45:34;;;;;;;8.95;5.13;;;19.20;63.00;;;;;;4993711;28;20034;-80
2021/07/05 02:48:12;;;;;;;6.18;4.00;;;19.20;63.00;;;;;;4995614;28;20457;-81
2021/07/05 02:50:39;;;;;;;8.90;4.25;;;19.30;62.90;;;;;;4995153;28;20027;-80
2021/07/05 02:53:07;;;;;;;7.97;4.35;;;19.30;63.00;;;;;;4995445;28;20061;-81
2021/07/05 02:55:34;;;;;;;7.25;5.03;;;19.30;63.00;;;;;;4996604;28;20022;-80
2021/07/05 02:58:00;;;;;;;6.83;4.27;;;19.40;63.30;;;;;;4982983;28;20049;-80
2021/07/05 03:00:29;;;;;;;7.85;4.38;;;19.50;62.80;;;;;;4994824;28;20019;-82
2021/07/05 03:02:56;;;;;;;5.93;4.95;;;19.50;62.90;;;;;;4993397;28;20380;-84
2021/07/05 03:05:23;;;;;;;6.77;4.23;;;19.70;62.70;;;;;;4995157;28;20014;-80
2021/07/05 03:07:50;;;;;;;12.88;4.78;;;19.80;61.70;;;;;;4994662;28;20279;-80
2021/07/05 03:10:22;;;;;;;6.63;5.25;;;19.80;61.10;;;;;;4994559;28;20022;-81
2021/07/05 03:12:48;;;;;;;8.88;4.78;;;19.80;61.00;;;;;;4994883;28;20046;-80
2021/07/05 03:15:15;;;;;;;7.15;4.05;;;20.00;60.60;;;;;;4993869;28;20018;-81
2021/07/05 03:17:42;;;;;;;6.57;4.00;;;20.10;60.30;;;;;;4994432;28;20039;-80
2021/07/05 03:20:11;;;;;;;9.88;4.32;;;20.10;60.10;;;;;;4994894;28;20022;-80
2021/07/05 03:22:37;;;;;;;8.30;4.63;;;20.20;60.70;;;;;;4994350;28;20492;-80
2021/07/05 03:25:07;;;;;;;7.80;4.57;;;20.30;59.70;;;;;;4994303;28;20413;-81
2021/07/05 03:27:33;;;;;;;9.52;4.82;;;20.30;59.70;;;;;;4994335;28;20322;-81
2021/07/05 03:29:59;;;;;;;7.70;4.25;;;20.30;59.20;;;;;;4994124;28;20038;-80
2021/07/05 03:32:26;;;;;;;13.85;4.65;;;20.20;59.70;;;;;;4994501;28;20465;-80
2021/07/05 03:34:52;;;;;;;6.05;4.07;;;20.20;59.20;;;;;;4994198;28;20028;-81
2021/07/05 03:37:18;;;;;;;7.78;4.13;;;20.20;58.90;;;;;;4994158;28;20472;-80
2021/07/05 03:39:45;;;;;;;8.55;4.93;;;20.30;58.90;;;;;;4994911;28;20051;-82
2021/07/05 03:42:10;;;;;;;11.07;4.40;;;20.30;58.80;;;;;;4994066;28;20439;-83
2021/07/05 03:44:37;;;;;;;9.00;4.15;;;20.30;59.40;;;;;;4994165;28;20018;-83
2021/07/05 03:47:03;;;;;;;9.63;5.03;;;20.40;59.10;;;;;;4994320;28;20145;-82
2021/07/05 03:49:29;;;;;;;8.57;4.00;;;20.50;59.00;;;;;;4994132;28;20048;-84
2021/07/05 03:51:55;;;;;;;7.88;4.20;;;20.50;58.60;;;;;;4993844;28;20026;-83
2021/07/05 03:54:20;;;;;;;8.52;4.50;;;20.60;58.60;;;;;;4993657;28;20029;-80
2021/07/05 03:56:46;;;;;;;8.00;4.20;;;20.70;57.60;;;;;;4990018;28;20026;-81
2021/07/05 03:59:13;;;;;;;9.38;4.18;;;20.70;57.70;;;;;;4990531;28;20019;-81
2021/07/05 04:01:40;;;;;;;6.38;4.05;;;20.80;57.80;;;;;;4994889;28;20376;-80
2021/07/05 04:04:06;;;;;;;6.32;3.97;;;20.90;57.50;;;;;;4993996;28;20026;-80
2021/07/05 04:06:32;;;;;;;10.10;5.97;;;21.00;56.30;;;;;;4980212;28;20029;-82
2021/07/05 04:08:59;;;;;;;9.82;3.72;;;21.00;56.60;;;;;;4993415;28;20424;-80
2021/07/05 04:11:25;;;;;;;;;;;21.00;56.10;;;;;;4993832;28;20034;-81
2021/07/05 04:13:51;;;;;;;10.93;5.47;;;21.00;56.60;;;;;;4993506;28;19913;-82
2021/07/05 04:16:17;;;;;;;10.15;3.80;;;21.00;55.50;;;;;;4993848;28;20475;-80
2021/07/05 04:18:43;;;;;;;8.60;3.72;;;21.00;55.40;;;;;;4993313;28;20034;-82
2021/07/05 04:21:09;;;;;;;13.25;5.25;;;21.00;55.00;;;;;;4994123;28;20034;-81
2021/07/05 04:23:35;;;;;;;12.63;7.90;;;21.00;55.60;;;;;;4993579;28;20384;-83
2021/07/05 04:26:02;;;;;;;16.38;8.38;;;21.10;55.70;;;;;;4992630;28;20026;-84
2021/07/05 04:28:30;;;;;;;12.30;6.93;;;21.20;55.20;;;;;;4991554;28;20425;-82
2021/07/05 04:30:56;;;;;;;;;;;21.30;54.90;;;;;;4994076;28;20030;-82
2021/07/05 04:33:22;;;;;;;8.65;3.45;;;21.40;54.80;;;;;;4994405;28;20275;-81
2021/07/05 04:35:48;;;;;;;6.53;3.90;;;21.50;54.10;;;;;;4994407;28;20379;-82
2021/07/05 04:38:14;;;;;;;8.05;3.70;;;21.50;53.90;;;;;;5000324;28;20037;-83
2021/07/05 04:40:41;;;;;;;17.85;9.60;;;21.60;53.30;;;;;;4997036;28;20113;-83
2021/07/05 04:43:10;;;;;;;8.13;3.75;;;21.70;54.00;;;;;;4997665;28;20404;-85
2021/07/05 04:45:38;;;;;;;5.55;3.47;;;21.70;50.70;;;;;;4996204;28;20074;-83
2021/07/05 04:48:06;;;;;;;6.38;4.13;;;21.80;51.50;;;;;;4993871;28;20026;-83
2021/07/05 04:50:32;;;;;;;10.73;4.18;;;21.90;51.80;;;;;;4994118;28;20030;-82
2021/07/05 04:52:59;;;;;;;8.10;4.65;;;22.00;52.10;;;;;;4992819;28;20023;-83
2021/07/05 04:55:26;;;;;;;8.80;4.13;;;22.10;51.00;;;;;;4994206;28;20057;-82
2021/07/05 04:57:53;;;;;;;5.45;2.70;;;22.20;49.10;;;;;;4992640;28;20023;-85
2021/07/05 05:00:34;;;;;;;12.38;3.95;;;22.30;49.00;;;;;;4993402;28;20076;-83
2021/07/05 05:03:02;;;;;;;6.95;2.97;;;22.40;47.70;;;;;;4993259;28;20157;-83
2021/07/05 05:05:28;;;;;;;8.02;3.33;;;22.30;48.30;;;;;;4993563;28;20352;-84
2021/07/05 05:07:55;;;;;;;6.23;3.10;;;22.30;48.90;;;;;;4993301;28;20029;-84
2021/07/05 05:10:22;;;;;;;5.85;2.97;;;22.40;47.80;;;;;;4992903;28;20338;-81
2021/07/05 05:12:49;;;;;;;7.23;3.07;;;22.50;47.70;;;;;;4992013;28;20054;-82
2021/07/05 05:15:17;;;;;;;7.25;4.55;;;22.70;47.50;;;;;;4993324;28;20264;-83
2021/07/05 05:17:44;;;;;;;6.63;3.95;;;23.40;45.50;;;;;;4992093;28;20049;-83
2021/07/05 05:20:11;;;;;;;9.68;4.88;;;24.30;43.80;;;;;;4992576;28;20018;-83
2021/07/05 05:22:38;;;;;;;5.10;3.60;;;25.20;43.00;;;;;;4992583;28;20554;-83
2021/07/05 05:25:06;;;;;;;;;;;26.10;41.50;;;;;;4992728;28;20476;-83
2021/07/05 05:27:32;;;;;;;5.50;2.70;;;26.90;40.60;;;;;;4974247;28;19944;-82
2021/07/05 05:29:57;;;;;;;8.68;3.67;;;27.40;38.00;;;;;;4991146;28;20108;-82
2021/07/05 05:32:23;;;;;;;9.95;2.97;;;27.90;38.70;;;;;;4992505;28;20033;-83
2021/07/05 05:34:49;;;;;;;8.15;2.00;;;28.50;36.90;;;;;;4991963;28;20026;-85
2021/07/05 05:37:15;;;;;;;9.18;3.50;;;29.10;36.40;;;;;;4990854;28;20077;-84
2021/07/05 05:39:41;;;;;;;11.93;4.32;;;29.80;36.10;;;;;;4993202;28;20037;-84
2021/07/05 05:42:07;;;;;;;4.97;3.20;;;30.10;35.70;;;;;;4993538;28;20487;-85
2021/07/05 05:44:33;;;;;;;10.27;2.95;;;30.20;34.80;;;;;;5004999;28;20490;-82
2021/07/05 05:46:59;;;;;;;6.55;2.40;;;29.90;34.20;;;;;;4992938;28;20081;-83
2021/07/05 05:49:25;;;;;;;17.48;6.55;;;29.40;33.90;;;;;;4993108;28;20026;-81
2021/07/05 05:51:51;;;;;;;13.70;7.27;;;29.30;34.70;;;;;;4992695;28;20027;-84
2021/07/05 05:54:17;;;;;;;4.07;2.17;;;29.70;34.70;;;;;;4981654;28;20348;-84
2021/07/05 05:56:43;;;;;;;4.22;1.92;;;29.70;34.50;;;;;;4989361;28;20118;-84
2021/07/05 05:59:11;;;;;;;7.43;3.10;;;29.70;34.30;;;;;;4996699;28;20018;-84
2021/07/05 06:01:40;;;;;;;9.38;3.10;;;30.00;35.10;;;;;;4996195;28;20400;-82
2021/07/05 06:04:06;;;;;;;13.20;4.20;;;31.20;34.90;;;;;;4994525;28;20159;-84
2021/07/05 06:06:33;;;;;;;6.47;3.00;;;32.10;33.40;;;;;;4996088;28;20065;-86
2021/07/05 06:08:59;;;;;;;7.57;4.05;;;;;;;;;;4996748;28;20375;-85
2021/07/05 06:11:26;;;;;;;9.38;3.03;;;;;;;;;;4983252;28;20022;-85
2021/07/05 06:13:52;;;;;;;5.38;1.98;;;;;;;;;;4997946;28;20022;-85
2021/07/05 06:16:18;;;;;;;3.63;2.17;;;;;;;;;;4999393;28;20054;-83
2021/07/05 06:18:44;;;;;;;8.68;3.15;;;;;;;;;;5005291;28;20021;-84
2021/07/05 06:21:10;;;;;;;8.35;3.40;;;32.20;33.20;;;;;;4996274;28;20035;-83
2021/07/05 06:23:36;;;;;;;10.67;2.80;;;35.40;30.30;;;;;;4996087;28;20030;-84
2021/07/05 06:26:04;;;;;;;6.70;2.97;;;35.90;29.40;;;;;;4999272;28;20467;-86
2021/07/05 06:28:32;;;;;;;12.98;4.47;;;35.70;29.00;;;;;;4997082;28;20142;-85
2021/07/05 06:30:59;;;;;;;8.52;4.07;;;35.90;28.60;;;;;;4996161;28;20034;-84
2021/07/05 06:33:25;;;;;;;6.18;2.97;;;36.10;28.80;;;;;;4995723;28;20025;-84
2021/07/05 06:35:51;;;;;;;8.77;6.00;;;36.10;29.10;;;;;;4996390;28;20023;-84
2021/07/05 06:38:19;;;;;;;8.02;3.47;;;36.50;28.70;;;;;;4995353;28;20026;-86
2021/07/05 06:40:46;;;;;;;8.00;3.47;;;37.20;28.40;;;;;;4995726;28;20069;-86
2021/07/05 06:43:13;;;;;;;12.45;4.25;;;37.60;27.30;;;;;;4995701;28;20102;-84
2021/07/05 06:45:41;;;;;;;7.82;2.55;;;38.20;26.90;;;;;;4995615;28;20080;-84
2021/07/05 06:48:08;;;;;;;11.52;3.22;;;37.50;25.80;;;;;;4995298;28;20038;-82
2021/07/05 06:50:35;;;;;;;11.63;5.63;;;37.30;26.80;;;;;;4989650;28;20018;-85
2021/07/05 06:53:01;;;;;;;8.40;3.38;;;37.40;27.30;;;;;;4998602;28;20033;-84
2021/07/05 06:55:27;;;;;;;12.85;3.72;;;37.20;27.40;;;;;;4998175;28;20046;-90
2021/07/05 06:57:53;;;;;;;8.95;3.55;;;36.60;27.70;;;;;;5002959;28;20117;-91
2021/07/05 07:00:23;;;;;;;18.02;6.32;;;37.30;28.00;;;;;;4999862;28;20053;-94
2021/07/05 07:02:49;;;;;;;5.28;3.15;;;37.50;27.70;;;;;;5004473;28;20035;-90
2021/07/05 07:05:17;;;;;;;9.02;4.22;;;37.60;28.00;;;;;;5000820;28;20065;-88
2021/07/05 07:07:55;;;;;;;7.10;4.03;;;38.20;27.80;;;;;;4997367;28;20448;-89
2021/07/05 07:10:24;;;;;;;7.55;4.22;;;38.50;28.30;;;;;;5002675;28;20033;-87
2021/07/05 07:12:52;;;;;;;8.15;2.92;;;38.10;28.20;;;;;;5009618;28;20056;-88
2021/07/05 07:15:27;;;;;;;5.97;2.60;;;39.30;27.50;;;;;;5008178;28;20069;-93
2021/07/05 07:18:04;;;;;;;8.52;3.38;;;39.10;27.10;;;;;;5002705;28;20033;-83
2021/07/05 07:20:30;;;;;;;8.77;3.20;;;38.80;27.60;;;;;;4995329;28;20384;-84
2021/07/05 07:22:56;;;;;;;6.63;2.60;;;38.10;27.80;;;;;;4998160;28;20054;-90
2021/07/05 07:25:22;;;;;;;11.48;3.63;;;37.80;28.20;;;;;;5001204;28;20027;-92
2021/07/05 07:27:48;;;;;;;5.15;3.25;;;38.10;28.30;;;;;;4998851;28;20073;-88
2021/07/05 07:30:15;;;;;;;9.93;3.92;;;38.00;28.50;;;;;;5001247;28;20038;-88
2021/07/05 07:32:42;;;;;;;8.23;3.10;;;38.50;28.50;;;;;;4997513;28;20034;-91
2021/07/05 07:35:18;;;;;;;5.10;3.17;;;38.80;27.00;;;;;;5000787;28;20109;-88
2021/07/05 07:37:47;;;;;;;6.97;3.75;;;38.20;27.40;;;;;;4994058;28;20363;-86
2021/07/05 07:40:19;;;;;;;12.13;3.75;;;37.90;28.00;;;;;;4992424;28;20037;-87
2021/07/05 07:42:46;;;;;;;6.80;3.75;;;38.40;28.20;;;;;;4993397;28;20069;-91
2021/07/05 07:45:19;;;;;;;12.98;5.45;;;38.30;28.20;;;;;;5006072;28;20077;-90
2021/07/05 07:47:46;;;;;;;9.23;3.45;;;39.10;28.20;;;;;;5010550;28;20387;-92
2021/07/05 07:50:13;;;;;;;11.80;4.28;;;39.20;27.70;;;;;;5003304;28;20026;-88
2021/07/05 07:52:40;;;;;;;10.93;3.95;;;39.10;28.10;;;;;;4995107;28;20022;-89
2021/07/05 07:55:08;;;;;;;6.65;3.10;;;38.60;28.00;;;;;;5001943;28;20121;-94
2021/07/05 07:57:36;;;;;;;7.93;4.10;;;38.00;28.20;;;;;;5001661;28;20022;-94
2021/07/05 08:00:09;;;;;;;9.90;4.32;;;38.30;28.40;;;;;;4995659;28;20019;-88
2021/07/05 08:02:35;;;;;;;13.50;4.03;;;37.30;28.60;;;;;;4993055;28;20519;-86
2021/07/05 08:05:01;;;;;;;8.38;3.55;;;37.60;28.90;;;;;;4995558;28;20014;-93
2021/07/05 08:07:27;;;;;;;7.57;4.88;;;37.50;28.70;;;;;;4985395;28;20045;-86
2021/07/05 08:09:54;;;;;;;6.93;3.33;;;37.40;28.60;;;;;;4994163;28;20030;-88
2021/07/05 08:12:21;;;;;;;7.90;3.42;;;37.70;28.60;;;;;;4994844;28;20389;-87
2021/07/05 08:14:47;;;;;;;4.60;3.00;;;38.30;28.20;;;;;;4995920;28;20018;-87
2021/07/05 08:17:13;;;;;;;5.53;2.63;;;39.10;26.80;;;;;;4979889;28;20555;-83
2021/07/05 08:19:39;;;;;;;8.52;3.20;;;38.50;27.40;;;;;;4992919;28;20026;-87
2021/07/05 08:22:05;;;;;;;7.22;3.58;;;38.00;27.60;;;;;;4996485;28;20034;-87
2021/07/05 08:24:32;;;;;;;4.20;2.95;;;38.60;27.70;;;;;;4995451;28;20022;-86
2021/07/05 08:26:58;;;;;;;6.63;2.95;;;39.30;27.10;;;;;;4996310;28;20057;-85
2021/07/05 08:29:24;;;;;;;10.13;3.53;;;38.80;27.10;;;;;;5006948;28;20022;-89
2021/07/05 08:31:50;;;;;;;;;;;38.30;27.40;;;;;;5006086;28;20134;-93
2021/07/05 08:34:17;;;;;;;7.53;2.83;;;39.80;27.90;;;;;;4996828;28;19953;-88
2021/07/05 08:36:44;;;;;;;6.93;3.20;;;40.90;26.20;;;;;;5001771;28;20177;-87
2021/07/05 08:39:10;;;;;;;5.93;2.90;;;42.70;25.90;;;;;;4985146;28;20050;-86
2021/07/05 08:41:37;;;;;;;13.02;3.00;;;44.00;25.20;;;;;;4995362;28;20030;-85
2021/07/05 08:44:03;;;;;;;5.07;2.78;;;44.50;25.30;;;;;;4985904;28;20065;-87
2021/07/05 08:46:32;;;;;;;7.55;3.15;;;44.80;25.00;;;;;;4995199;28;20019;-85
2021/07/05 08:48:58;;;;;;;10.00;3.22;;;44.90;24.40;;;;;;4994113;28;20033;-86
2021/07/05 08:51:24;;;;;;;6.18;3.10;;;42.50;24.70;;;;;;4992866;28;20022;-87
2021/07/05 08:53:52;;;;;;;8.27;3.33;;;39.70;26.40;;;;;;4992919;28;20022;-85
2021/07/05 08:56:20;;;;;;;8.30;3.05;;;39.40;27.20;;;;;;4994681;28;20014;-90
2021/07/05 08:58:47;;;;;;;9.05;3.35;;;39.40;26.50;;;;;;5001616;28;20026;-89
2021/07/05 09:01:15;;;;;;;8.48;3.25;;;39.10;27.20;;;;;;4998054;28;20130;-88
2021/07/05 09:03:41;;;;;;;8.57;3.40;;;39.40;26.70;;;;;;5003097;28;20023;-87
2021/07/05 09:06:14;;;;;;;;;;;40.60;26.40;;;;;;4997127;28;20026;-86
2021/07/05 09:08:43;;;;;;;8.18;4.18;;;41.40;26.60;;;;;;4986741;28;19906;-88
2021/07/05 09:11:17;;;;;;;7.55;3.47;;;42.50;25.60;;;;;;4989299;28;20033;-91
2021/07/05 09:13:52;;;;;;;9.43;3.40;;;43.30;25.30;;;;;;4998440;28;20054;-89
2021/07/05 09:16:29;;;;;;;4.53;3.15;;;44.00;25.20;;;;;;5005220;28;20049;-91
2021/07/05 09:18:56;;;;;;;15.27;10.68;;;43.40;24.60;;;;;;4987442;28;20031;-91
2021/07/05 09:21:27;;;;;;;6.18;3.05;;;41.00;25.00;;;;;;5000560;28;20042;-93
2021/07/05 09:24:00;;;;;;;7.25;3.67;;;39.90;25.90;;;;;;5001000;28;20023;-92
2021/07/05 09:26:30;;;;;;;17.67;12.48;;;40.60;26.60;;;;;;4998059;28;20027;-89
2021/07/05 09:28:57;;;;;;;5.95;3.40;;;40.70;26.20;;;;;;4999754;28;20137;-89
2021/07/05 09:31:34;;;;;;;11.93;5.10;;;41.20;25.90;;;;;;5000078;28;20048;-88
2021/07/05 09:34:04;;;;;;;7.15;3.60;;;41.60;25.60;;;;;;4999311;28;20066;-89
2021/07/05 09:36:30;;;;;;;7.90;3.95;;;40.40;26.00;;;;;;4987607;28;20062;-90
2021/07/05 09:38:56;;;;;;;4.65;3.63;;;40.40;26.10;;;;;;5020476;28;20092;-88
2021/07/05 09:41:34;;;;;;;15.18;5.25;;;40.70;26.00;;;;;;5014125;28;20046;-88
2021/07/05 09:44:03;;;;;;;9.20;4.60;;;40.80;26.50;;;;;;5001185;28;20023;-88
2021/07/05 09:46:40;;;;;;;11.90;5.22;;;39.90;26.70;;;;;;5000663;28;20031;-90
2021/07/05 09:49:19;;;;;;;7.57;4.30;;;38.70;27.70;;;;;;5002302;28;20105;-90
2021/07/05 09:52:06;;;;;;;6.78;3.85;;;37.80;28.50;;;;;;5005631;28;20030;-90
2021/07/05 09:54:36;;;;;;;10.98;6.80;;;37.50;28.20;;;;;;4997518;28;20015;-92
2021/07/05 09:57:05;;;;;;;11.10;6.50;;;35.90;29.60;;;;;;5000398;28;20468;-89
2021/07/05 09:59:31;;;;;;;13.32;6.53;;;34.70;30.30;;;;;;5011869;28;20082;-92
2021/07/05 10:01:59;;;;;;;18.50;8.23;;;33.80;31.80;;;;;;5011230;28;20039;-87
2021/07/05 10:04:42;;;;;;;13.85;7.00;;;33.90;32.50;;;;;;5005475;28;20041;-89
2021/07/05 10:07:08;;;;;;;5.18;3.92;;;35.60;31.80;;;;;;4989160;28;20033;-89
2021/07/05 10:09:36;;;;;;;7.80;3.97;;;37.80;29.30;;;;;;4999493;28;20022;-88
2021/07/05 10:12:14;;;;;;;5.45;4.00;;;38.90;27.90;;;;;;5001401;28;20074;-87
2021/07/05 10:14:40;;;;;;;8.13;4.95;;;39.00;27.00;;;;;;4991702;28;20455;-91
2021/07/05 10:17:15;;;;;;;5.97;3.60;;;38.90;27.10;;;;;;5003809;28;20101;-88
2021/07/05 10:19:41;;;;;;;6.20;3.97;;;37.70;27.90;;;;;;5007951;28;20037;-87
2021/07/05 10:22:08;;;;;;;7.07;3.83;;;35.70;29.30;;;;;;5001934;28;20396;-84
2021/07/05 10:24:34;;;;;;;;;;;34.30;30.50;;;;;;5005697;28;20025;-90
2021/07/05 10:27:00;;;;;;;6.55;4.10;;;33.90;31.20;;;;;;5008616;28;19964;-84
2021/07/05 10:29:26;;;;;;;6.70;3.80;;;33.90;31.70;;;;;;5008359;28;20026;-83
2021/07/05 10:31:52;;;;;;;8.30;5.23;;;33.40;31.20;;;;;;5013691;28;20280;-87
2021/07/05 10:34:22;;;;;;;5.72;4.50;;;32.00;33.20;;;;;;5009198;28;20100;-86
2021/07/05 10:36:50;;;;;;;4.28;3.63;;;31.10;34.40;;;;;;5008273;28;20480;-87
2021/07/05 10:39:16;;;;;;;6.50;3.60;;;30.60;34.60;;;;;;5003044;28;20022;-91
2021/07/05 10:41:42;;;;;;;5.32;4.07;;;30.40;34.80;;;;;;5000549;28;20038;-91
2021/07/05 10:44:10;;;;;;;5.53;4.20;;;30.00;35.70;;;;;;4998550;28;20026;-86
2021/07/05 10:46:42;;;;;;;4.97;3.65;;;29.70;35.60;;;;;;4995537;28;20372;-88
2021/07/05 10:49:32;;;;;;;11.48;4.97;;;;;;;;;;4995147;28;20517;-88
2021/07/05 10:52:03;;;;;;;5.03;3.78;;;29.20;36.90;;;;;;4997533;28;20031;-87
2021/07/05 10:54:52;;;;;;;6.55;4.40;;;28.80;37.50;;;;;;4997625;28;20124;-88
2021/07/05 10:57:23;;;;;;;8.90;4.97;;;;;;;;;;4998849;28;20058;-88
2021/07/05 10:59:51;;;;;;;9.90;4.43;;;28.70;37.70;;;;;;4995614;28;20076;-87
2021/07/05 11:02:35;;;;;;;9.45;4.35;;;27.90;38.70;;;;;;4996616;28;20427;-86
2021/07/05 11:05:03;;;;;;;9.18;5.22;;;27.70;39.10;;;;;;4999859;28;20026;-85
2021/07/05 11:07:44;;;;;;;8.32;5.18;;;27.40;39.40;;;;;;4995929;28;20476;-86
2021/07/05 11:10:29;;;;;;;7.80;4.47;;;27.40;39.40;;;;;;4992526;28;20035;-89
2021/07/05 11:12:57;;;;;;;6.40;4.15;;;27.40;39.30;;;;;;4991023;28;20519;-87
2021/07/05 11:15:58;;;;;;;;;;;27.60;39.50;;;;;;5000249;28;20026;-85
2021/07/05 11:18:39;;;;;;;9.93;5.45;;;27.70;38.80;;;;;;4989202;28;19910;-84
2021/07/05 11:21:43;;;;;;;6.82;4.50;;;27.50;39.20;;;;;;5001564;28;20038;-91
2021/07/05 11:24:12;;;;;;;7.93;4.10;;;27.10;39.40;;;;;;4989698;28;20537;-90
2021/07/05 11:26:41;;;;;;;7.15;3.75;;;26.90;39.80;;;;;;4980775;28;20066;-88
2021/07/05 11:29:17;;;;;;;11.73;4.43;;;26.80;40.10;;;;;;5002647;28;20022;-90
2021/07/05 11:31:58;;;;;;;10.50;4.38;;;26.80;40.70;;;;;;5002157;28;20038;-90
2021/07/05 11:34:38;;;;;;;14.30;4.97;;;26.90;40.50;;;;;;4973751;28;20034;-90
2021/07/05 11:37:13;;;;;;;6.40;3.63;;;27.00;40.40;;;;;;4988903;28;20039;-88
2021/07/05 11:39:46;;;;;;;7.97;4.07;;;27.20;40.20;;;;;;4994280;28;20092;-92
2021/07/05 11:42:18;;;;;;;9.35;5.28;;;27.10;39.70;;;;;;4999050;28;20038;-90
2021/07/05 11:44:49;;;;;;;10.50;5.13;;;26.90;39.10;;;;;;4992091;28;20027;-89
2021/07/05 11:47:36;;;;;;;9.95;4.35;;;26.60;39.60;;;;;;4975962;28;20035;-92
2021/07/05 11:50:17;;;;;;;6.05;4.10;;;26.40;40.40;;;;;;4980445;28;20634;-85
2021/07/05 11:52:59;;;;;;;7.90;4.43;;;26.40;40.60;;;;;;4995122;28;20048;-89
2021/07/05 11:55:31;;;;;;;6.47;3.97;;;26.20;40.60;;;;;;4992245;28;20077;-87
2021/07/05 11:58:02;;;;;;;9.00;4.63;;;26.10;40.70;;;;;;4993768;28;20026;-85
2021/07/05 12:00:31;;;;;;;6.47;3.70;;;26.10;41.30;;;;;;4994934;28;20018;-85
2021/07/05 12:03:15;;;;;;;7.05;3.72;;;26.10;40.80;;;;;;4994469;28;20069;-83
2021/07/05 12:05:43;;;;;;;11.43;4.30;;;26.20;40.90;;;;;;4994996;28;20387;-84
2021/07/05 12:08:12;;;;;;;8.25;3.58;;;26.30;40.80;;;;;;4991962;28;20591;-84
2021/07/05 12:10:41;;;;;;;6.35;3.60;;;26.10;41.30;;;;;;4988014;28;20026;-86
2021/07/05 12:13:23;;;;;;;5.88;3.55;;;26.00;40.60;;;;;;4995026;28;20049;-87
2021/07/05 12:15:58;;;;;;;6.50;3.63;;;26.00;41.20;;;;;;4995420;28;20018;-84
2021/07/05 12:18:24;;;;;;;11.77;3.60;;;25.90;41.30;;;;;;4994819;28;20074;-86
2021/07/05 12:21:07;;;;;;;10.65;6.18;;;25.90;41.50;;;;;;4990734;28;20126;-84
2021/07/05 12:23:38;;;;;;;7.22;3.28;;;25.90;42.10;;;;;;4978934;28;20061;-86
2021/07/05 12:26:39;;;;;;;9.30;4.28;;;26.00;42.20;;;;;;4990214;28;20026;-83
2021/07/05 12:29:18;;;;;;;9.07;4.47;;;26.00;41.40;;;;;;4988296;28;20460;-81
2021/07/05 12:32:13;;;;;;;4.88;3.22;;;26.00;41.60;;;;;;4997647;28;20033;-85
2021/07/05 12:34:47;;;;;;;11.48;4.13;;;26.00;40.80;;;;;;4994870;28;20462;-88
2021/07/05 12:37:19;;;;;;;8.85;3.55;;;26.00;41.40;;;;;;4983933;28;20018;-84
2021/07/05 12:39:46;;;;;;;7.60;2.80;;;26.00;40.20;;;;;;4986622;28;20026;-83
2021/07/05 12:42:22;;;;;;;;;;;25.90;40.00;;;;;;4996690;28;20064;-88
2021/07/05 12:44:48;;;;;;;4.87;3.60;;;25.80;40.10;;;;;;5014010;28;19909;-86
2021/07/05 12:47:14;;;;;;;12.02;4.57;;;25.80;40.60;;;;;;5007293;28;20019;-84
2021/07/05 12:49:41;;;;;;;6.07;3.35;;;25.90;41.10;;;;;;4996330;28;20027;-85
2021/07/05 12:52:10;;;;;;;8.50;4.18;;;25.90;40.90;;;;;;4999726;28;20021;-86
2021/07/05 12:54:40;;;;;;;7.38;4.00;;;25.90;41.10;;;;;;4992236;28;20077;-86
2021/07/05 12:57:11;;;;;;;8.00;4.40;;;25.90;41.30;;;;;;4994852;28;20041;-84